createdAt,value
2018-11-14T00:00:28.173Z,10.01
2018-11-14T00:01:28.204Z,9.95
2018-11-14T00:02:28.233Z,10.11
2018-11-14T00:03:28.265Z,10.09
2018-11-14T00:04:28.300Z,10.07
2018-11-14T00:05:28.335Z,10.09
2018-11-14T00:06:28.360Z,10.10
2018-11-14T00:07:28.390Z,10.07
2018-11-14T00:08:28.433Z,10.07
2018-11-14T00:09:28.463Z,10.20
2018-11-14T00:10:28.484Z,10.17
2018-11-14T00:11:28.517Z,10.18
2018-11-14T00:12:28.553Z,10.17
2018-11-14T00:13:28.580Z,10.20
2018-11-14T00:14:28.620Z,10.22
2018-11-14T00:15:28.646Z,10.24
2018-11-14T00:16:28.690Z,10.25
2018-11-14T00:17:28.704Z,10.17
2018-11-14T00:18:28.734Z,10.24
2018-11-14T00:19:28.773Z,10.26
2018-11-14T00:20:28.800Z,10.28
2018-11-14T00:21:28.828Z,10.32
2018-11-14T00:22:28.862Z,10.32
2018-11-14T00:23:28.892Z,10.29
2018-11-14T00:24:28.952Z,10.35
2018-11-14T00:25:28.954Z,10.29
2018-11-14T00:26:28.986Z,10.31
2018-11-14T00:27:29.018Z,10.34
2018-11-14T00:28:29.050Z,10.29
2018-11-14T00:29:29.340Z,10.34
2018-11-14T00:30:29.110Z,10.34
2018-11-14T00:31:29.143Z,10.31
2018-11-14T00:32:29.174Z,10.34
2018-11-14T00:33:29.208Z,10.34
2018-11-14T00:34:29.287Z,10.35
2018-11-14T00:35:29.303Z,10.29
2018-11-14T00:36:29.301Z,10.35
2018-11-14T00:37:29.332Z,10.31
2018-11-14T00:38:29.364Z,10.35
2018-11-14T00:39:29.398Z,10.31
2018-11-14T00:40:29.427Z,10.31
2018-11-14T00:41:29.458Z,10.29
2018-11-14T00:42:29.488Z,10.31
2018-11-14T00:43:29.521Z,10.25
2018-11-14T00:44:29.553Z,10.34
2018-11-14T00:45:29.584Z,10.34
2018-11-14T00:46:29.615Z,10.35
2018-11-14T00:47:30.248Z,10.31
2018-11-14T00:48:29.678Z,10.24
2018-11-14T00:49:29.711Z,10.31
2018-11-14T00:50:29.741Z,10.24
2018-11-14T00:51:29.772Z,10.20
2018-11-14T00:52:29.804Z,10.20
2018-11-14T00:53:29.837Z,10.22
2018-11-14T00:54:29.865Z,10.24
2018-11-14T00:55:29.900Z,10.20
2018-11-14T00:56:29.937Z,10.22
2018-11-14T00:57:29.963Z,10.14
2018-11-14T00:58:29.992Z,10.20
2018-11-14T00:59:30.025Z,10.18
2018-11-14T01:00:30.057Z,10.22
2018-11-14T01:01:30.143Z,10.24
2018-11-14T01:02:30.121Z,10.22
2018-11-14T01:03:30.150Z,10.29
2018-11-14T01:04:30.183Z,10.31
2018-11-14T01:05:30.215Z,10.24
2018-11-14T01:06:30.245Z,10.34
2018-11-14T01:07:30.278Z,10.34
2018-11-14T01:08:30.308Z,10.31
2018-11-14T01:09:30.639Z,10.29
2018-11-14T01:10:30.371Z,10.25
2018-11-14T01:11:30.406Z,10.32
2018-11-14T01:12:30.494Z,10.26
2018-11-14T01:13:30.466Z,10.38
2018-11-14T01:14:30.497Z,10.35
2018-11-14T01:15:30.535Z,10.31
2018-11-14T01:16:30.560Z,10.26
2018-11-14T01:17:30.592Z,10.28
2018-11-14T01:18:30.629Z,10.26
2018-11-14T01:19:30.652Z,10.24
2018-11-14T01:20:30.685Z,10.20
2018-11-14T01:21:30.773Z,10.16
2018-11-14T01:22:30.754Z,10.14
2018-11-14T01:23:30.779Z,10.14
2018-11-14T01:24:30.814Z,10.10
2018-11-14T01:25:30.845Z,10.10
2018-11-14T01:26:30.875Z,10.10
2018-11-14T01:27:30.906Z,10.04
2018-11-14T01:28:30.939Z,10.13
2018-11-14T01:29:30.971Z,10.06
2018-11-14T01:30:31.000Z,10.10
2018-11-14T01:31:31.031Z,10.04
2018-11-14T01:32:31.064Z,10.07
2018-11-14T01:33:31.097Z,10.01
2018-11-14T01:34:31.131Z,10.07
2018-11-14T01:35:31.158Z,10.02
2018-11-14T01:36:31.190Z,10.07
2018-11-14T01:37:31.223Z,10.06
2018-11-14T01:38:31.253Z,9.98
2018-11-14T01:39:31.285Z,9.98
2018-11-14T01:40:31.317Z,10.10
2018-11-14T01:41:31.349Z,9.99
2018-11-14T01:42:31.379Z,10.07
2018-11-14T01:43:31.409Z,10.07
2018-11-14T01:44:31.442Z,10.01
2018-11-14T01:45:31.475Z,9.99
2018-11-14T01:46:31.504Z,9.95
2018-11-14T01:47:31.536Z,9.95
2018-11-14T01:48:31.576Z,9.93
2018-11-14T01:49:31.601Z,9.93
2018-11-14T01:50:31.632Z,9.86
2018-11-14T01:51:31.662Z,9.95
2018-11-14T01:52:31.693Z,9.99
2018-11-14T01:53:31.726Z,9.92
2018-11-14T01:54:31.756Z,9.83
2018-11-14T01:55:31.788Z,9.78
2018-11-14T01:56:31.818Z,9.93
2018-11-14T01:57:31.851Z,9.86
2018-11-14T01:58:31.884Z,9.93
2018-11-14T01:59:31.914Z,9.88
2018-11-14T02:00:31.946Z,9.85
2018-11-14T02:01:31.977Z,9.80
2018-11-14T02:02:32.008Z,9.89
2018-11-14T02:03:32.039Z,9.85
2018-11-14T02:04:32.069Z,9.77
2018-11-14T02:05:32.102Z,9.78
2018-11-14T02:06:32.132Z,9.80
2018-11-14T02:07:32.164Z,9.80
2018-11-14T02:08:32.195Z,9.77
2018-11-14T02:09:32.227Z,9.78
2018-11-14T02:10:32.258Z,9.78
2018-11-14T02:11:32.289Z,9.78
2018-11-14T02:12:32.319Z,9.78
2018-11-14T02:13:32.351Z,9.71
2018-11-14T02:14:32.382Z,9.73
2018-11-14T02:15:32.414Z,9.75
2018-11-14T02:16:32.449Z,9.74
2018-11-14T02:17:32.477Z,9.75
2018-11-14T02:18:32.509Z,9.75
2018-11-14T02:19:32.540Z,9.70
2018-11-14T02:20:32.571Z,9.75
2018-11-14T02:21:32.603Z,9.74
2018-11-14T02:22:32.633Z,9.71
2018-11-14T02:23:32.668Z,9.68
2018-11-14T02:24:32.695Z,9.74
2018-11-14T02:25:32.726Z,9.73
2018-11-14T02:26:32.757Z,9.68
2018-11-14T02:27:32.789Z,9.67
2018-11-14T02:28:32.820Z,9.68
2018-11-14T02:29:32.852Z,9.60
2018-11-14T02:30:32.883Z,9.65
2018-11-14T02:31:32.914Z,9.68
2018-11-14T02:32:32.947Z,9.73
2018-11-14T02:33:32.982Z,9.65
2018-11-14T02:34:33.008Z,9.70
2018-11-14T02:35:33.040Z,9.62
2018-11-14T02:36:33.071Z,9.59
2018-11-14T02:37:40.268Z,9.59
2018-11-14T02:39:37.166Z,9.58
2018-11-14T02:42:01.165Z,9.49
2018-11-14T02:43:01.190Z,9.53
2018-11-14T02:45:05.218Z,9.55
2018-11-14T02:46:05.242Z,9.42
2018-11-14T02:47:58.193Z,9.55
2018-11-14T02:48:58.222Z,9.53
2018-11-14T02:51:02.731Z,9.50
2018-11-14T02:52:02.280Z,9.52
2018-11-14T02:54:06.412Z,9.55
2018-11-14T02:55:06.477Z,9.55
2018-11-14T02:57:11.000Z,9.53
2018-11-14T02:58:11.029Z,9.50
2018-11-14T03:00:04.355Z,9.40
2018-11-14T03:01:04.374Z,9.44
2018-11-14T03:03:08.400Z,9.31
2018-11-14T03:04:08.428Z,9.32
2018-11-14T03:06:12.458Z,9.34
2018-11-14T03:07:12.478Z,9.26
2018-11-14T03:09:17.214Z,9.27
2018-11-14T03:10:17.024Z,9.23
2018-11-14T03:11:17.056Z,9.37
2018-11-14T03:12:17.167Z,9.40
2018-11-14T03:13:17.129Z,9.35
2018-11-14T03:14:17.151Z,9.26
2018-11-14T03:15:17.184Z,9.32
2018-11-14T03:16:17.213Z,9.24
2018-11-14T03:17:17.276Z,9.34
2018-11-14T03:18:17.274Z,9.24
2018-11-14T03:19:17.303Z,9.24
2018-11-14T03:20:17.334Z,9.24
2018-11-14T03:21:17.368Z,9.16
2018-11-14T03:22:17.448Z,9.12
2018-11-14T03:23:17.428Z,9.08
2018-11-14T03:24:17.458Z,9.20
2018-11-14T03:25:17.491Z,9.10
2018-11-14T03:26:17.524Z,9.10
2018-11-14T03:27:17.552Z,9.30
2018-11-14T03:28:17.583Z,9.10
2018-11-14T03:29:17.613Z,9.17
2018-11-14T03:30:17.651Z,9.19
2018-11-14T03:31:17.677Z,9.16
2018-11-14T03:32:17.708Z,9.15
2018-11-14T03:33:17.739Z,9.10
2018-11-14T03:34:17.770Z,9.15
2018-11-14T03:35:17.803Z,9.20
2018-11-14T03:36:17.831Z,9.10
2018-11-14T03:37:17.866Z,9.15
2018-11-14T03:38:17.898Z,9.19
2018-11-14T03:39:17.925Z,9.10
2018-11-14T03:40:17.954Z,9.16
2018-11-14T03:41:17.986Z,9.12
2018-11-14T03:42:18.017Z,9.15
2018-11-14T03:43:18.047Z,9.10
2018-11-14T03:44:18.081Z,9.08
2018-11-14T03:45:18.111Z,9.08
2018-11-14T03:46:18.143Z,9.06
2018-11-14T03:47:18.174Z,9.04
2018-11-14T03:48:18.202Z,9.03
2018-11-14T03:49:18.235Z,9.10
2018-11-14T03:50:18.264Z,9.06
2018-11-14T03:51:18.296Z,9.06
2018-11-14T03:52:18.325Z,9.04
2018-11-14T03:53:18.358Z,8.96
2018-11-14T03:54:18.390Z,8.96
2018-11-14T03:55:18.421Z,8.97
2018-11-14T03:56:18.451Z,8.96
2018-11-14T03:57:18.482Z,8.97
2018-11-14T03:58:18.568Z,8.91
2018-11-14T03:59:18.550Z,9.00
2018-11-14T04:00:18.574Z,8.97
2018-11-14T04:01:18.609Z,9.00
2018-11-14T04:02:18.636Z,8.97
2018-11-14T04:03:18.667Z,8.97
2018-11-14T04:04:18.699Z,8.97
2018-11-14T04:05:18.747Z,9.00
2018-11-14T04:06:18.760Z,8.86
2018-11-14T04:07:18.795Z,8.96
2018-11-14T04:08:18.825Z,8.86
2018-11-14T04:09:18.917Z,8.86
2018-11-14T04:10:18.885Z,8.91
2018-11-14T04:11:18.915Z,8.85
2018-11-14T04:12:18.950Z,8.88
2018-11-14T04:13:18.977Z,8.89
2018-11-14T04:14:19.007Z,8.85
2018-11-14T04:15:19.038Z,8.82
2018-11-14T04:16:19.071Z,8.79
2018-11-14T04:17:19.114Z,8.88
2018-11-14T04:18:19.131Z,8.83
2018-11-14T04:19:19.160Z,8.96
2018-11-14T04:20:19.192Z,8.80
2018-11-14T04:21:19.224Z,8.83
2018-11-14T04:22:19.254Z,8.88
2018-11-14T04:23:19.283Z,8.96
2018-11-14T04:24:19.314Z,8.88
2018-11-14T04:25:19.346Z,8.86
2018-11-14T04:26:19.377Z,8.82
2018-11-14T04:27:19.408Z,8.85
2018-11-14T04:28:19.438Z,8.80
2018-11-14T04:29:19.473Z,8.88
2018-11-14T04:30:19.502Z,8.83
2018-11-14T04:31:19.533Z,8.79
2018-11-14T04:32:19.566Z,8.91
2018-11-14T04:33:19.593Z,8.83
2018-11-14T04:34:19.626Z,8.83
2018-11-14T04:35:19.654Z,8.86
2018-11-14T04:36:19.685Z,8.93
2018-11-14T04:37:19.718Z,8.86
2018-11-14T04:38:19.750Z,8.91
2018-11-14T04:39:19.777Z,8.91
2018-11-14T04:40:19.806Z,8.91
2018-11-14T04:41:19.840Z,8.94
2018-11-14T04:42:19.873Z,8.89
2018-11-14T04:43:19.901Z,8.86
2018-11-14T04:44:19.933Z,8.88
2018-11-14T04:45:19.962Z,8.93
2018-11-14T04:46:19.994Z,8.88
2018-11-14T04:47:20.025Z,8.86
2018-11-14T04:48:20.055Z,8.85
2018-11-14T04:49:20.087Z,8.83
2018-11-14T04:50:20.119Z,8.85
2018-11-14T04:51:20.147Z,8.91
2018-11-14T04:52:20.182Z,8.88
2018-11-14T04:53:20.210Z,8.79
2018-11-14T04:54:20.241Z,8.82
2018-11-14T04:55:20.269Z,8.76
2018-11-14T04:56:20.305Z,8.85
2018-11-14T04:57:20.341Z,8.75
2018-11-14T04:58:20.363Z,8.73
2018-11-14T04:59:20.399Z,8.78
2018-11-14T05:00:20.428Z,8.68
2018-11-14T05:01:20.456Z,8.76
2018-11-14T05:02:20.514Z,8.63
2018-11-14T05:03:20.517Z,8.70
2018-11-14T05:04:20.547Z,8.60
2018-11-14T05:05:20.582Z,8.55
2018-11-14T05:06:20.609Z,8.58
2018-11-14T05:07:20.641Z,8.64
2018-11-14T05:08:20.676Z,8.63
2018-11-14T05:09:20.703Z,8.61
2018-11-14T05:10:20.789Z,8.58
2018-11-14T05:11:20.765Z,8.64
2018-11-14T05:12:20.795Z,8.55
2018-11-14T05:13:20.825Z,8.58
2018-11-14T05:14:20.859Z,8.68
2018-11-14T05:15:20.892Z,8.61
2018-11-14T05:16:20.919Z,8.52
2018-11-14T05:17:20.951Z,8.67
2018-11-14T05:18:20.981Z,8.58
2018-11-14T05:19:21.044Z,8.49
2018-11-14T05:20:21.041Z,8.49
2018-11-14T05:21:21.070Z,8.57
2018-11-14T05:22:21.102Z,8.49
2018-11-14T05:23:21.150Z,8.50
2018-11-14T05:24:21.196Z,8.49
2018-11-14T05:25:21.198Z,8.47
2018-11-14T05:26:21.226Z,8.47
2018-11-14T05:27:21.254Z,8.39
2018-11-14T05:28:21.286Z,8.40
2018-11-14T05:29:21.318Z,8.37
2018-11-14T05:30:21.349Z,8.40
2018-11-14T05:31:21.379Z,8.37
2018-11-14T05:32:21.408Z,8.36
2018-11-14T05:33:21.445Z,8.39
2018-11-14T05:34:21.470Z,8.43
2018-11-14T05:35:21.501Z,8.46
2018-11-14T05:36:21.531Z,8.37
2018-11-14T05:37:21.561Z,8.42
2018-11-14T05:38:21.594Z,8.47
2018-11-14T05:39:21.621Z,8.47
2018-11-14T05:40:21.855Z,8.40
2018-11-14T05:41:21.685Z,8.47
2018-11-14T05:42:21.728Z,8.40
2018-11-14T05:43:21.745Z,8.39
2018-11-14T05:44:21.774Z,8.37
2018-11-14T05:45:21.882Z,8.37
2018-11-14T05:46:21.842Z,8.40
2018-11-14T05:47:21.867Z,8.32
2018-11-14T05:48:21.897Z,8.36
2018-11-14T05:49:21.926Z,8.37
2018-11-14T05:50:21.961Z,8.37
2018-11-14T05:51:21.995Z,8.40
2018-11-14T05:52:22.019Z,8.42
2018-11-14T05:53:22.048Z,8.37
2018-11-14T05:54:22.081Z,8.37
2018-11-14T05:55:22.111Z,8.39
2018-11-14T05:56:22.140Z,8.36
2018-11-14T05:57:22.171Z,8.34
2018-11-14T05:58:22.202Z,8.39
2018-11-14T05:59:22.231Z,8.40
2018-11-14T06:00:22.262Z,8.40
2018-11-14T06:01:22.292Z,8.42
2018-11-14T06:02:22.325Z,8.40
2018-11-14T06:03:22.352Z,8.40
2018-11-14T06:04:22.384Z,8.39
2018-11-14T06:05:22.415Z,8.40
2018-11-14T06:06:22.446Z,8.39
2018-11-14T06:07:22.540Z,8.40
2018-11-14T06:08:22.508Z,8.40
2018-11-14T06:09:22.537Z,8.39
2018-11-14T06:10:22.572Z,8.37
2018-11-14T06:11:22.597Z,8.40
2018-11-14T06:12:22.631Z,8.46
2018-11-14T06:13:22.660Z,8.39
2018-11-14T06:14:22.691Z,8.46
2018-11-14T06:15:22.855Z,8.47
2018-11-14T06:16:22.749Z,8.54
2018-11-14T06:17:22.780Z,8.43
2018-11-14T06:18:22.812Z,8.49
2018-11-14T06:19:22.841Z,8.47
2018-11-14T06:20:22.870Z,8.47
2018-11-14T06:21:22.905Z,8.42
2018-11-14T06:22:22.948Z,8.46
2018-11-14T06:23:22.971Z,8.47
2018-11-14T06:24:22.993Z,8.43
2018-11-14T06:25:23.025Z,8.39
2018-11-14T06:26:23.056Z,8.49
2018-11-14T06:27:23.086Z,8.43
2018-11-14T06:28:23.115Z,8.40
2018-11-14T06:29:23.147Z,8.47
2018-11-14T06:30:23.177Z,8.52
2018-11-14T06:31:23.208Z,8.47
2018-11-14T06:32:23.238Z,8.46
2018-11-14T06:33:23.273Z,8.47
2018-11-14T06:34:23.302Z,8.40
2018-11-14T06:35:23.330Z,8.45
2018-11-14T06:36:23.360Z,8.54
2018-11-14T06:37:23.393Z,8.46
2018-11-14T06:38:23.424Z,8.50
2018-11-14T06:39:23.452Z,8.50
2018-11-14T06:40:23.489Z,8.43
2018-11-14T06:41:23.534Z,8.47
2018-11-14T06:42:23.544Z,8.46
2018-11-14T06:43:23.573Z,8.42
2018-11-14T06:44:23.605Z,8.45
2018-11-14T06:45:23.637Z,8.49
2018-11-14T06:46:23.666Z,8.50
2018-11-14T06:47:23.698Z,8.43
2018-11-14T06:48:23.726Z,8.54
2018-11-14T06:49:23.755Z,8.52
2018-11-14T06:50:23.788Z,8.49
2018-11-14T06:51:23.817Z,8.50
2018-11-14T06:52:23.849Z,8.52
2018-11-14T06:53:23.880Z,8.54
2018-11-14T06:54:23.909Z,8.47
2018-11-14T06:55:23.940Z,8.55
2018-11-14T06:56:23.971Z,8.47
2018-11-14T06:57:24.001Z,8.55
2018-11-14T06:58:24.031Z,8.46
2018-11-14T06:59:24.136Z,8.61
2018-11-14T07:00:24.093Z,8.58
2018-11-14T07:01:24.124Z,8.67
2018-11-14T07:02:27.319Z,8.60
2018-11-14T07:03:24.209Z,8.55
2018-11-14T07:04:24.217Z,8.64
2018-11-14T07:05:24.280Z,8.68
2018-11-14T07:06:24.276Z,8.71
2018-11-14T07:07:24.307Z,8.64
2018-11-14T07:08:24.337Z,8.65
2018-11-14T07:09:24.368Z,8.64
2018-11-14T07:10:24.397Z,8.76
2018-11-14T07:11:24.430Z,8.63
2018-11-14T07:12:24.460Z,8.71
2018-11-14T07:13:24.511Z,8.79
2018-11-14T07:14:24.523Z,8.83
2018-11-14T07:15:24.549Z,8.76
2018-11-14T07:16:24.582Z,8.78
2018-11-14T07:17:24.613Z,8.83
2018-11-14T07:18:24.646Z,8.88
2018-11-14T07:19:24.674Z,8.88
2018-11-14T07:20:24.708Z,8.88
2018-11-14T07:21:24.735Z,8.86
2018-11-14T07:22:24.769Z,8.86
2018-11-14T07:23:24.795Z,8.82
2018-11-14T07:24:24.847Z,8.86
2018-11-14T07:25:24.862Z,8.94
2018-11-14T07:26:24.891Z,8.83
2018-11-14T07:27:24.919Z,8.89
2018-11-14T07:28:24.950Z,8.91
2018-11-14T07:29:24.990Z,8.83
2018-11-14T07:30:25.012Z,8.96
2018-11-14T07:31:25.046Z,8.96
2018-11-14T07:32:25.074Z,8.98
2018-11-14T07:33:25.104Z,9.04
2018-11-14T07:34:25.135Z,9.06
2018-11-14T07:35:25.166Z,9.10
2018-11-14T07:36:25.197Z,9.16
2018-11-14T07:37:25.227Z,9.17
2018-11-14T07:38:25.259Z,9.13
2018-11-14T07:39:25.288Z,9.22
2018-11-14T07:40:25.317Z,9.22
2018-11-14T07:41:25.350Z,9.31
2018-11-14T07:42:25.393Z,9.32
2018-11-14T07:43:25.467Z,9.27
2018-11-14T07:44:25.440Z,9.35
2018-11-14T07:45:25.472Z,9.31
2018-11-14T07:46:25.502Z,9.35
2018-11-14T07:47:25.533Z,9.41
2018-11-14T07:48:25.565Z,9.41
2018-11-14T07:49:25.595Z,9.38
2018-11-14T07:50:25.628Z,9.41
2018-11-14T07:51:25.658Z,9.44
2018-11-14T07:52:25.690Z,9.45
2018-11-14T07:53:25.719Z,9.41
2018-11-14T07:54:25.786Z,9.53
2018-11-14T07:55:25.778Z,9.44
2018-11-14T07:56:25.811Z,9.55
2018-11-14T07:57:25.842Z,9.55
2018-11-14T07:58:25.877Z,9.53
2018-11-14T07:59:25.904Z,9.52
2018-11-14T08:00:25.934Z,9.58
2018-11-14T08:01:25.966Z,9.56
2018-11-14T08:02:25.997Z,9.59
2018-11-14T08:03:26.028Z,9.60
2018-11-14T08:04:26.058Z,9.56
2018-11-14T08:05:26.090Z,9.58
2018-11-14T08:06:26.120Z,9.60
2018-11-14T08:07:26.151Z,9.62
2018-11-14T08:08:26.317Z,9.67
2018-11-14T08:09:26.213Z,9.67
2018-11-14T08:10:26.246Z,9.58
2018-11-14T08:11:26.276Z,9.62
2018-11-14T08:12:26.310Z,9.70
2018-11-14T08:13:26.339Z,9.73
2018-11-14T08:14:26.370Z,9.68
2018-11-14T08:15:26.402Z,9.77
2018-11-14T08:16:26.431Z,9.73
2018-11-14T08:17:26.463Z,9.80
2018-11-14T08:18:26.494Z,9.89
2018-11-14T08:19:26.528Z,9.81
2018-11-14T08:20:26.556Z,9.88
2018-11-14T08:21:26.585Z,9.92
2018-11-14T08:22:26.620Z,9.95
2018-11-14T08:23:26.652Z,9.99
2018-11-14T08:24:26.682Z,9.99
2018-11-14T08:25:26.712Z,9.98
2018-11-14T08:26:26.749Z,10.10
2018-11-14T08:27:26.774Z,10.06
2018-11-14T08:28:26.805Z,10.11
2018-11-14T08:29:26.836Z,10.07
2018-11-14T08:30:26.887Z,10.17
2018-11-14T08:31:26.898Z,10.17
2018-11-14T08:32:26.929Z,10.17
2018-11-14T08:33:26.961Z,10.18
2018-11-14T08:34:26.994Z,10.24
2018-11-14T08:35:27.023Z,10.28
2018-11-14T08:36:27.054Z,10.36
2018-11-14T08:37:34.244Z,10.39
2018-11-14T08:39:31.112Z,10.43
2018-11-14T08:40:31.140Z,10.57
2018-11-14T08:42:35.178Z,10.65
2018-11-14T08:43:35.210Z,10.72
2018-11-14T08:45:39.231Z,10.73
2018-11-14T08:46:39.260Z,10.80
2018-11-14T08:48:32.214Z,10.84
2018-11-14T08:49:32.237Z,10.87
2018-11-14T08:51:36.266Z,11.01
2018-11-14T08:52:36.294Z,11.01
2018-11-14T08:54:40.359Z,11.21
2018-11-14T08:55:40.349Z,11.30
2018-11-14T08:57:44.384Z,11.24
2018-11-14T08:58:44.408Z,11.38
2018-11-14T09:00:48.438Z,11.46
2018-11-14T09:01:48.466Z,11.60
2018-11-14T09:03:52.519Z,11.85
2018-11-14T09:04:52.519Z,11.96
2018-11-14T09:06:56.578Z,12.05
2018-11-14T09:07:56.576Z,12.05
2018-11-14T09:10:00.609Z,11.98
2018-11-14T09:11:00.671Z,11.94
2018-11-14T09:13:04.925Z,11.90
2018-11-14T09:14:04.707Z,11.96
2018-11-14T09:16:08.737Z,12.11
2018-11-14T09:17:08.764Z,12.08
2018-11-14T09:19:12.793Z,11.97
2018-11-14T09:20:12.823Z,11.96
2018-11-14T09:22:16.854Z,12.05
2018-11-14T09:23:16.882Z,12.11
2018-11-14T09:25:20.979Z,12.33
2018-11-14T09:26:20.940Z,12.44
2018-11-14T09:28:13.894Z,12.69
2018-11-14T09:29:13.920Z,12.74
2018-11-14T09:31:17.975Z,12.76
2018-11-14T09:32:18.006Z,12.71
2018-11-14T09:34:22.032Z,12.80
2018-11-14T09:35:22.059Z,12.88
2018-11-14T09:37:26.193Z,13.03
2018-11-14T09:38:26.124Z,13.22
2018-11-14T09:40:30.149Z,13.50
2018-11-14T09:41:30.203Z,13.63
2018-11-14T09:43:34.206Z,13.93
2018-11-14T09:44:34.250Z,14.01
2018-11-14T09:46:38.275Z,14.11
2018-11-14T09:47:38.297Z,14.13
2018-11-14T09:49:42.371Z,14.06
2018-11-14T09:50:42.361Z,14.26
2018-11-14T09:52:46.391Z,14.60
2018-11-14T09:53:46.424Z,14.74
2018-11-14T09:55:50.459Z,15.31
2018-11-14T09:56:50.625Z,15.59
2018-11-14T09:58:43.450Z,16.84
2018-11-14T09:59:43.480Z,17.83
2018-11-14T10:01:47.544Z,19.52
2018-11-14T10:02:47.561Z,19.98
2018-11-14T10:04:51.583Z,21.15
2018-11-14T10:05:51.631Z,21.82
2018-11-14T10:07:55.780Z,23.16
2018-11-14T10:08:55.728Z,23.45
2018-11-14T10:10:59.768Z,24.00
2018-11-14T10:11:59.759Z,24.29
2018-11-14T10:14:03.916Z,24.31
2018-11-14T10:15:03.839Z,24.45
2018-11-14T10:17:07.882Z,24.90
2018-11-14T10:18:07.915Z,25.11
2018-11-14T10:20:11.987Z,25.91
2018-11-14T10:21:12.036Z,26.19
2018-11-14T10:23:16.036Z,26.20
2018-11-14T10:24:16.076Z,26.46
2018-11-14T10:26:20.117Z,26.97
2018-11-14T10:27:20.152Z,27.21
2018-11-14T10:29:24.200Z,27.30
2018-11-14T10:30:24.290Z,27.27
2018-11-14T10:32:28.343Z,26.79
2018-11-14T10:33:28.312Z,26.81
2018-11-14T10:34:28.351Z,26.87
2018-11-14T10:35:28.391Z,26.60
2018-11-14T10:36:28.433Z,26.35
2018-11-14T10:37:28.468Z,26.09
2018-11-14T10:38:28.508Z,25.78
2018-11-14T10:39:28.549Z,25.83
2018-11-14T10:40:28.587Z,26.01
2018-11-14T10:41:28.626Z,25.24
2018-11-14T10:42:28.667Z,24.67
2018-11-14T10:43:28.710Z,24.31
2018-11-14T10:44:28.746Z,24.63
2018-11-14T10:45:28.784Z,24.37
2018-11-14T10:46:28.824Z,23.92
2018-11-14T10:47:28.864Z,24.45
2018-11-14T10:48:28.903Z,25.17
2018-11-14T10:49:28.942Z,25.45
2018-11-14T10:50:28.979Z,25.60
2018-11-14T10:51:29.019Z,25.19
2018-11-14T10:52:29.060Z,24.89
2018-11-14T10:53:29.098Z,24.09
2018-11-14T10:54:29.137Z,23.25
2018-11-14T10:55:29.174Z,22.85
2018-11-14T10:56:29.215Z,23.42
2018-11-14T10:57:29.253Z,23.96
2018-11-14T10:58:29.301Z,23.57
2018-11-14T10:59:29.329Z,23.03
2018-11-14T11:00:29.395Z,22.51
2018-11-14T11:01:29.406Z,22.66
2018-11-14T11:02:29.443Z,23.75
2018-11-14T11:03:29.483Z,23.77
2018-11-14T11:04:29.522Z,23.35
2018-11-14T11:05:29.559Z,22.76
2018-11-14T11:06:29.600Z,22.57
2018-11-14T11:07:29.636Z,22.57
2018-11-14T11:08:29.686Z,22.04
2018-11-14T11:09:29.712Z,21.73
2018-11-14T11:10:29.755Z,21.28
2018-11-14T11:11:29.787Z,21.03
2018-11-14T11:12:29.826Z,20.78
2018-11-14T11:13:29.865Z,20.38
2018-11-14T11:14:29.902Z,20.02
2018-11-14T11:15:29.939Z,19.78
2018-11-14T11:16:29.977Z,19.57
2018-11-14T11:17:30.015Z,19.45
2018-11-14T11:18:30.052Z,19.16
2018-11-14T11:19:30.089Z,19.02
2018-11-14T11:20:30.126Z,18.83
2018-11-14T11:21:30.161Z,18.57
2018-11-14T11:22:30.203Z,18.46
2018-11-14T11:23:30.263Z,18.26
2018-11-14T11:24:30.275Z,18.13
2018-11-14T11:25:30.310Z,17.99
2018-11-14T11:26:30.348Z,17.77
2018-11-14T11:27:30.384Z,17.54
2018-11-14T11:28:30.424Z,17.38
2018-11-14T11:29:30.458Z,17.24
2018-11-14T11:30:30.493Z,17.18
2018-11-14T11:31:30.531Z,16.91
2018-11-14T11:32:30.566Z,16.69
2018-11-14T11:33:30.602Z,16.54
2018-11-14T11:34:30.638Z,16.36
2018-11-14T11:35:30.675Z,16.27
2018-11-14T11:36:30.710Z,16.14
2018-11-14T11:37:30.747Z,16.07
2018-11-14T11:38:30.782Z,16.08
2018-11-14T11:39:30.818Z,16.16
2018-11-14T11:40:30.855Z,16.25
2018-11-14T11:41:30.890Z,16.10
2018-11-14T11:42:30.924Z,16.04
2018-11-14T11:43:30.961Z,16.04
2018-11-14T11:44:31.015Z,15.98
2018-11-14T11:45:31.033Z,16.06
2018-11-14T11:46:31.068Z,16.03
2018-11-14T11:47:31.104Z,16.10
2018-11-14T11:48:31.138Z,15.93
2018-11-14T11:49:31.174Z,16.06
2018-11-14T11:50:31.211Z,16.04
2018-11-14T11:51:31.245Z,16.10
2018-11-14T11:52:31.286Z,15.98
2018-11-14T11:53:31.315Z,16.07
2018-11-14T11:54:31.349Z,16.04
2018-11-14T11:55:31.386Z,15.95
2018-11-14T11:56:31.421Z,16.06
2018-11-14T11:57:31.506Z,16.23
2018-11-14T11:58:31.491Z,16.55
2018-11-14T11:59:31.535Z,16.70
2018-11-14T12:00:31.786Z,16.87
2018-11-14T12:01:31.595Z,16.98
2018-11-14T12:02:31.649Z,16.85
2018-11-14T12:03:31.672Z,17.05
2018-11-14T12:04:31.704Z,17.22
2018-11-14T12:05:31.738Z,17.17
2018-11-14T12:06:31.847Z,17.20
2018-11-14T12:07:31.809Z,17.17
2018-11-14T12:08:31.845Z,17.15
2018-11-14T12:09:31.878Z,17.05
2018-11-14T12:10:31.917Z,17.02
2018-11-14T12:11:31.951Z,16.88
2018-11-14T12:12:31.985Z,16.75
2018-11-14T12:13:32.050Z,16.51
2018-11-14T12:14:32.055Z,16.51
2018-11-14T12:15:32.090Z,16.51
2018-11-14T12:16:32.125Z,16.57
2018-11-14T12:17:32.178Z,16.82
2018-11-14T12:18:32.196Z,16.98
2018-11-14T12:19:32.232Z,16.96
2018-11-14T12:20:32.300Z,16.90
2018-11-14T12:21:32.303Z,16.88
2018-11-14T12:22:32.338Z,16.77
2018-11-14T12:23:32.390Z,16.54
2018-11-14T12:24:32.408Z,16.57
2018-11-14T12:25:32.443Z,16.41
2018-11-14T12:26:32.479Z,16.27
2018-11-14T12:27:32.530Z,16.22
2018-11-14T12:28:32.548Z,16.07
2018-11-14T12:29:32.586Z,15.93
2018-11-14T12:30:32.664Z,15.78
2018-11-14T12:31:32.654Z,15.59
2018-11-14T12:32:32.692Z,15.52
2018-11-14T12:33:32.725Z,15.33
2018-11-14T12:34:32.803Z,15.23
2018-11-14T12:35:32.832Z,15.18
2018-11-14T12:36:32.831Z,15.22
2018-11-14T12:37:32.867Z,15.34
2018-11-14T12:38:32.921Z,15.22
2018-11-14T12:39:32.936Z,15.34
2018-11-14T12:40:32.974Z,15.33
2018-11-14T12:41:33.005Z,15.18
2018-11-14T12:42:33.039Z,15.16
2018-11-14T12:43:33.089Z,15.00
2018-11-14T12:44:33.109Z,15.04
2018-11-14T12:45:33.145Z,14.90
2018-11-14T12:46:33.179Z,14.82
2018-11-14T12:47:33.216Z,14.82
2018-11-14T12:48:33.249Z,14.69
2018-11-14T12:49:33.283Z,14.59
2018-11-14T12:50:33.319Z,14.44
2018-11-14T12:51:33.355Z,14.45
2018-11-14T12:52:33.429Z,14.42
2018-11-14T12:53:33.420Z,14.34
2018-11-14T12:54:33.455Z,14.24
2018-11-14T12:55:33.489Z,14.13
2018-11-14T12:56:33.528Z,14.06
2018-11-14T12:57:33.558Z,13.93
2018-11-14T12:58:33.593Z,13.80
2018-11-14T12:59:33.637Z,13.83
2018-11-14T13:00:33.667Z,13.76
2018-11-14T13:01:33.697Z,13.91
2018-11-14T13:02:33.731Z,13.81
2018-11-14T13:03:33.765Z,13.80
2018-11-14T13:04:33.800Z,13.87
2018-11-14T13:05:33.835Z,13.84
2018-11-14T13:06:33.866Z,13.79
2018-11-14T13:07:33.901Z,13.80
2018-11-14T13:08:33.934Z,13.80
2018-11-14T13:09:33.969Z,13.83
2018-11-14T13:10:34.004Z,13.76
2018-11-14T13:11:34.040Z,13.61
2018-11-14T13:12:34.073Z,13.63
2018-11-14T13:13:34.103Z,13.55
2018-11-14T13:14:34.140Z,13.41
2018-11-14T13:15:34.174Z,13.35
2018-11-14T13:16:34.207Z,13.35
2018-11-14T13:17:34.241Z,13.39
2018-11-14T13:18:34.275Z,13.41
2018-11-14T13:19:34.310Z,13.44
2018-11-14T13:20:34.343Z,13.38
2018-11-14T13:21:34.376Z,13.53
2018-11-14T13:22:34.412Z,13.68
2018-11-14T13:23:34.448Z,13.93
2018-11-14T13:24:34.478Z,14.13
2018-11-14T13:25:34.512Z,14.23
2018-11-14T13:26:34.545Z,14.46
2018-11-14T13:27:34.583Z,14.60
2018-11-14T13:28:34.617Z,14.83
2018-11-14T13:29:34.647Z,14.95
2018-11-14T13:30:34.696Z,15.13
2018-11-14T13:31:34.715Z,15.31
2018-11-14T13:32:34.750Z,15.38
2018-11-14T13:33:34.783Z,15.49
2018-11-14T13:34:34.818Z,15.52
2018-11-14T13:35:34.852Z,15.41
2018-11-14T13:36:34.889Z,15.49
2018-11-14T13:37:34.920Z,15.62
2018-11-14T13:38:34.976Z,15.74
2018-11-14T13:39:34.987Z,15.77
2018-11-14T13:40:35.022Z,15.81
2018-11-14T13:41:35.055Z,15.78
2018-11-14T13:42:35.090Z,15.73
2018-11-14T13:43:35.126Z,15.76
2018-11-14T13:44:35.159Z,15.77
2018-11-14T13:45:35.193Z,15.84
2018-11-14T13:46:35.227Z,16.03
2018-11-14T13:47:35.267Z,15.99
2018-11-14T13:48:35.319Z,16.10
2018-11-14T13:49:35.619Z,16.30
2018-11-14T13:50:35.552Z,16.51
2018-11-14T13:51:35.399Z,16.67
2018-11-14T13:52:35.435Z,16.69
2018-11-14T13:53:35.469Z,16.69
2018-11-14T13:54:35.504Z,16.77
2018-11-14T13:55:35.539Z,16.69
2018-11-14T13:56:35.574Z,16.69
2018-11-14T13:57:35.608Z,16.75